KHEZ/HEZ METAR and TAF weather

Enter ICAO airport designator
Station Type Date Time Source
KHEZ METAR 2021/05/15 23:56 UTC NOAA

KHEZ 152356Z AUTO 17003KT 10SM CLR 25/16 A3010 RMK AO2 SLP192 T02500156 10272 20250 56012


Station Type Date Time Source
KHEZ Decoded METAR 2021/05/15 23:56 UTC NOAA

Natchez, Hardy-Anders Field Natchez-Adams County Airport, MS, United States (KHEZ) 31-37N 091-18W
May 15, 2021 - 07:56 PM EDT / 2021.05.15 2356 UTC
Wind: from the S (170 degrees) at 3 MPH (3 KT):0
Visibility: 10 mile(s):0
Sky conditions: clear
Temperature: 77.0 F (25.0 C)
Dew Point: 60.1 F (15.6 C)
Relative Humidity: 55%
Pressure (altimeter): 30.1 in. Hg (1019 hPa)
Pressure tendency: 0.04 inches (1.2 hPa) lower than three hours ago
ob: KHEZ 152356Z AUTO 17003KT 10SM CLR 25/16 A3010 RMK AO2 SLP192 T02500156 10272 20250 56012
cycle: 0

Station Type Date Time Source
KHEZ TAF UTC NOAA

Error!

Example: see airport list